createdAt,value
2022-09-30T00:00:37.751Z,89.96
2022-09-30T00:03:04.547Z,90.17
2022-09-30T00:05:31.007Z,90.63
2022-09-30T00:07:57.540Z,90.45
2022-09-30T00:10:24.059Z,90.26
2022-09-30T00:12:52.441Z,90.68
2022-09-30T00:15:19.975Z,90.60
2022-09-30T00:17:46.466Z,90.19
2022-09-30T00:20:14.719Z,90.57
2022-09-30T00:22:41.538Z,90.24
2022-09-30T00:25:09.169Z,90.52
2022-09-30T00:27:35.601Z,90.39
2022-09-30T00:30:02.253Z,90.18
2022-09-30T00:32:28.880Z,90.35
2022-09-30T00:34:55.341Z,90.27
2022-09-30T00:37:21.807Z,90.05
2022-09-30T00:39:48.309Z,90.38
2022-09-30T00:42:15.510Z,90.13
2022-09-30T00:45:17.909Z,89.76
2022-09-30T00:47:56.197Z,89.87
2022-09-30T00:50:46.066Z,89.38
2022-09-30T00:53:30.391Z,89.67
2022-09-30T00:56:02.057Z,88.69
2022-09-30T00:58:44.521Z,88.39
2022-09-30T01:01:18.831Z,89.07
2022-09-30T01:04:02.584Z,88.76
2022-09-30T01:06:29.592Z,89.06
2022-09-30T01:08:58.444Z,89.08
2022-09-30T01:11:26.716Z,88.66
2022-09-30T01:13:57.952Z,89.18
2022-09-30T01:16:36.892Z,88.94
2022-09-30T01:19:36.784Z,88.93
2022-09-30T01:22:57.594Z,88.71
2022-09-30T01:25:38.980Z,88.82
2022-09-30T01:28:26.610Z,88.85
2022-09-30T01:31:05.174Z,88.79
2022-09-30T01:33:59.739Z,89.05
2022-09-30T01:36:47.163Z,88.95
2022-09-30T01:39:29.018Z,88.83
2022-09-30T01:42:36.242Z,88.82
2022-09-30T01:45:42.850Z,88.78
2022-09-30T01:48:21.239Z,88.71
2022-09-30T01:51:03.832Z,88.81
2022-09-30T01:53:47.047Z,88.97
2022-09-30T01:56:32.332Z,88.71
2022-09-30T01:59:11.388Z,88.82
2022-09-30T02:01:43.800Z,89.21
2022-09-30T02:04:20.045Z,89.08
2022-09-30T02:06:52.448Z,88.68
2022-09-30T02:09:40.605Z,88.80
2022-09-30T02:12:10.965Z,89.09
2022-09-30T02:14:42.406Z,88.86
2022-09-30T02:17:16.895Z,89.21
2022-09-30T02:19:50.916Z,88.93
2022-09-30T02:22:31.263Z,88.94
2022-09-30T02:25:03.902Z,88.67
2022-09-30T02:27:41.603Z,88.69
2022-09-30T02:30:12.201Z,88.88
2022-09-30T02:32:50.859Z,89.07
2022-09-30T02:35:26.916Z,89.22
2022-09-30T02:37:59.368Z,89.27
2022-09-30T02:40:36.163Z,89.29
2022-09-30T02:43:04.377Z,89.72
2022-09-30T02:45:47.627Z,90.21
2022-09-30T02:48:22.951Z,90.82
2022-09-30T02:51:02.771Z,91.15
2022-09-30T02:53:41.312Z,90.83
2022-09-30T02:56:25.897Z,90.91
2022-09-30T02:58:56.170Z,90.90
2022-09-30T03:01:24.188Z,91.10
2022-09-30T03:04:05.146Z,91.35
2022-09-30T03:06:32.724Z,91.17
2022-09-30T03:08:59.402Z,91.75
2022-09-30T03:11:28.449Z,91.31
2022-09-30T03:14:24.158Z,91.32
2022-09-30T03:17:21.293Z,91.80
2022-09-30T03:20:10.406Z,91.65
2022-09-30T03:22:43.580Z,91.17
2022-09-30T03:25:32.112Z,91.12
2022-09-30T03:28:25.112Z,91.55
2022-09-30T03:31:20.049Z,91.36
2022-09-30T03:34:27.672Z,91.69
2022-09-30T03:37:40.516Z,91.67
2022-09-30T03:40:37.005Z,91.62
2022-09-30T03:43:09.480Z,91.95
2022-09-30T03:45:46.564Z,91.59
2022-09-30T03:48:15.924Z,91.69
2022-09-30T03:50:43.329Z,91.67
2022-09-30T03:53:12.519Z,91.70
2022-09-30T03:55:51.010Z,91.15
2022-09-30T03:58:19.723Z,91.38
2022-09-30T04:00:49.566Z,91.65
2022-09-30T04:03:17.153Z,91.42
2022-09-30T04:05:43.970Z,91.48
2022-09-30T04:08:10.734Z,91.65
2022-09-30T04:10:40.721Z,91.88
2022-09-30T04:13:08.447Z,91.54
2022-09-30T04:15:36.389Z,91.92
2022-09-30T04:18:05.559Z,91.73
2022-09-30T04:20:32.834Z,91.81
2022-09-30T04:23:01.219Z,91.62
2022-09-30T04:25:28.605Z,91.51
2022-09-30T04:27:55.995Z,91.51
2022-09-30T04:30:25.580Z,91.61
2022-09-30T04:32:53.047Z,91.40
2022-09-30T04:35:19.934Z,92.00
2022-09-30T04:37:47.576Z,91.63
2022-09-30T04:40:15.783Z,91.99
2022-09-30T04:42:43.213Z,91.97
2022-09-30T04:45:11.783Z,92.06
2022-09-30T04:47:39.117Z,91.66
2022-09-30T04:50:06.077Z,92.07
2022-09-30T04:52:32.617Z,91.60
2022-09-30T04:54:59.064Z,92.08
2022-09-30T04:57:25.484Z,92.07
2022-09-30T04:59:51.969Z,91.74
2022-09-30T05:02:18.587Z,92.28
2022-09-30T05:04:45.676Z,92.34
2022-09-30T05:07:12.296Z,92.22
2022-09-30T05:09:39.163Z,92.36
2022-09-30T05:12:05.895Z,92.49
2022-09-30T05:14:33.312Z,92.50
2022-09-30T05:16:59.834Z,92.03
2022-09-30T05:19:26.393Z,91.87
2022-09-30T05:21:52.852Z,92.56
2022-09-30T05:24:19.334Z,92.76
2022-09-30T05:26:45.896Z,92.58
2022-09-30T05:29:12.446Z,92.80
2022-09-30T05:31:39.465Z,92.91
2022-09-30T05:34:06.087Z,93.08
2022-09-30T05:36:32.523Z,93.28
2022-09-30T05:38:58.966Z,93.25
2022-09-30T05:41:25.424Z,93.32
2022-09-30T05:43:51.998Z,93.26
2022-09-30T05:46:19.884Z,93.27
2022-09-30T05:48:46.979Z,93.12
2022-09-30T05:51:13.786Z,93.01
2022-09-30T05:53:41.368Z,92.99
2022-09-30T05:56:09.699Z,92.81
2022-09-30T05:58:37.772Z,92.75
2022-09-30T06:01:14.224Z,92.84
2022-09-30T06:03:46.597Z,92.81
2022-09-30T06:06:15.210Z,92.42
2022-09-30T06:08:43.437Z,92.77
2022-09-30T06:11:12.027Z,92.63
2022-09-30T06:13:40.177Z,92.76
2022-09-30T06:16:08.199Z,92.98
2022-09-30T06:18:35.447Z,93.53
2022-09-30T06:21:04.607Z,93.48
2022-09-30T06:23:35.636Z,93.44
2022-09-30T06:26:04.347Z,93.55
2022-09-30T06:28:30.815Z,93.17
2022-09-30T06:30:57.267Z,93.32
2022-09-30T06:33:23.754Z,93.43
2022-09-30T06:35:50.558Z,93.32
2022-09-30T06:38:17.562Z,93.47
2022-09-30T06:40:49.458Z,93.19
2022-09-30T06:43:19.564Z,93.05
2022-09-30T06:45:47.583Z,92.85
2022-09-30T06:48:14.284Z,93.15
2022-09-30T06:50:44.509Z,93.30
2022-09-30T06:53:17.012Z,93.04
2022-09-30T06:55:43.544Z,92.92
2022-09-30T06:58:15.155Z,92.96
2022-09-30T07:00:41.897Z,92.78
2022-09-30T07:03:22.344Z,92.44
2022-09-30T07:06:02.665Z,92.58
2022-09-30T07:08:31.709Z,92.48
2022-09-30T07:10:59.960Z,92.55
2022-09-30T07:13:26.536Z,92.04
2022-09-30T07:15:54.779Z,91.87
2022-09-30T07:18:22.389Z,91.77
2022-09-30T07:20:53.809Z,91.36
2022-09-30T07:23:25.905Z,91.30
2022-09-30T07:25:58.847Z,91.07
2022-09-30T07:28:31.433Z,90.81
2022-09-30T07:31:19.827Z,89.95
2022-09-30T07:33:46.137Z,89.77
2022-09-30T07:36:14.063Z,89.14
2022-09-30T07:38:42.549Z,88.80
2022-09-30T07:41:16.109Z,88.31
2022-09-30T07:43:44.516Z,88.40
2022-09-30T07:46:14.985Z,88.34
2022-09-30T07:48:44.647Z,87.90
2022-09-30T07:51:17.256Z,87.75
2022-09-30T07:53:46.111Z,87.40
2022-09-30T07:56:14.161Z,86.58
2022-09-30T07:58:41.312Z,85.55
2022-09-30T08:01:09.794Z,84.98
2022-09-30T08:03:40.100Z,84.45
2022-09-30T08:06:09.733Z,84.54
2022-09-30T08:08:39.504Z,84.07
2022-09-30T08:11:06.941Z,83.71
2022-09-30T08:13:33.736Z,83.42
2022-09-30T08:16:00.395Z,82.07
2022-09-30T08:18:30.135Z,81.98
2022-09-30T08:20:57.264Z,81.89
2022-09-30T08:23:23.842Z,81.88
2022-09-30T08:25:50.298Z,82.17
2022-09-30T08:28:18.295Z,81.96
2022-09-30T08:30:44.929Z,81.50
2022-09-30T08:33:11.617Z,82.10
2022-09-30T08:35:38.371Z,81.52
2022-09-30T08:38:04.821Z,80.73
2022-09-30T08:40:38.730Z,80.96
2022-09-30T08:44:07.075Z,79.59
2022-09-30T08:46:59.836Z,79.03
2022-09-30T08:49:54.016Z,78.42
2022-09-30T08:52:37.423Z,77.80
2022-09-30T08:55:24.352Z,77.40
2022-09-30T08:57:53.452Z,77.38
2022-09-30T09:00:22.426Z,77.30
2022-09-30T09:02:56.040Z,76.30
2022-09-30T09:06:00.797Z,75.98
2022-09-30T09:08:53.259Z,76.31
2022-09-30T09:11:43.986Z,76.38
2022-09-30T09:14:31.047Z,75.75
2022-09-30T09:17:34.412Z,75.06
2022-09-30T09:20:15.334Z,74.98
2022-09-30T09:22:44.337Z,74.83
2022-09-30T09:25:17.117Z,74.80
2022-09-30T09:27:55.689Z,75.46
2022-09-30T09:30:24.278Z,73.35
2022-09-30T09:33:00.213Z,73.37
2022-09-30T09:35:40.628Z,72.84
2022-09-30T09:38:24.995Z,73.06
2022-09-30T09:41:10.952Z,73.14
2022-09-30T09:43:53.408Z,72.41
2022-09-30T09:46:29.189Z,72.69
2022-09-30T09:49:13.993Z,72.00
2022-09-30T09:51:47.787Z,70.43
2022-09-30T09:54:19.036Z,70.80
2022-09-30T09:56:45.537Z,70.74
2022-09-30T09:59:13.594Z,69.18
2022-09-30T10:01:44.349Z,67.93
2022-09-30T10:04:27.767Z,67.69
2022-09-30T10:07:01.603Z,68.12
2022-09-30T10:09:31.374Z,67.27
2022-09-30T10:12:06.906Z,66.81
2022-09-30T10:14:50.041Z,66.32
2022-09-30T10:17:35.217Z,65.43
2022-09-30T10:20:28.170Z,64.36
2022-09-30T10:23:19.087Z,63.20
2022-09-30T10:25:55.644Z,63.02
2022-09-30T10:28:25.279Z,57.97
2022-09-30T10:30:57.659Z,58.41
2022-09-30T10:33:29.855Z,58.44
2022-09-30T10:36:30.740Z,57.95
2022-09-30T10:39:04.191Z,58.08
2022-09-30T10:41:35.835Z,57.37
2022-09-30T10:44:12.723Z,57.07
2022-09-30T10:46:42.084Z,58.50
2022-09-30T10:49:12.068Z,57.38
2022-09-30T10:51:39.780Z,57.33
2022-09-30T10:54:06.861Z,58.11
2022-09-30T10:56:45.422Z,58.69
2022-09-30T10:59:44.077Z,58.22
2022-09-30T11:02:27.482Z,59.16
2022-09-30T11:05:13.524Z,59.19
2022-09-30T11:07:50.011Z,57.13
2022-09-30T11:10:31.830Z,57.16
2022-09-30T11:13:13.675Z,57.30
2022-09-30T11:15:40.214Z,53.33
2022-09-30T11:18:21.087Z,52.90
2022-09-30T11:21:05.888Z,54.30
2022-09-30T11:23:46.246Z,53.64
2022-09-30T11:26:25.437Z,52.87
2022-09-30T11:29:26.407Z,52.45
2022-09-30T11:32:02.227Z,51.82
2022-09-30T11:34:58.119Z,51.01
2022-09-30T11:37:57.201Z,52.80
2022-09-30T11:40:42.045Z,52.87
2022-09-30T11:43:29.474Z,53.56
2022-09-30T11:46:22.631Z,53.30
2022-09-30T11:49:14.383Z,52.97
2022-09-30T11:52:03.331Z,52.76
2022-09-30T11:55:06.435Z,53.58
2022-09-30T11:57:42.206Z,53.72
2022-09-30T12:00:12.918Z,52.91
2022-09-30T12:02:44.548Z,52.70
2022-09-30T12:05:35.200Z,52.71
2022-09-30T12:08:24.237Z,53.92
2022-09-30T12:10:59.989Z,55.09
2022-09-30T12:13:41.092Z,56.20
2022-09-30T12:16:16.383Z,57.20
2022-09-30T12:18:48.783Z,57.97
2022-09-30T12:21:21.744Z,57.41
2022-09-30T12:24:02.862Z,56.45
2022-09-30T12:26:31.060Z,56.53
2022-09-30T12:29:40.043Z,57.47
2022-09-30T12:32:09.973Z,56.15
2022-09-30T12:35:02.053Z,56.02
2022-09-30T12:37:53.874Z,53.93
2022-09-30T12:40:33.112Z,54.95
2022-09-30T12:43:11.775Z,54.04
2022-09-30T12:45:56.739Z,53.23
2022-09-30T12:48:32.219Z,51.29
2022-09-30T12:50:59.790Z,51.42
2022-09-30T12:53:29.245Z,51.57
2022-09-30T12:56:04.055Z,51.61
2022-09-30T12:58:44.016Z,51.75
2022-09-30T13:01:22.787Z,51.06
2022-09-30T13:03:59.792Z,50.74
2022-09-30T13:06:44.830Z,50.40
2022-09-30T13:09:12.005Z,49.54
2022-09-30T13:11:48.230Z,49.97
2022-09-30T13:14:25.690Z,51.16
2022-09-30T13:17:05.123Z,50.31
2022-09-30T13:19:36.207Z,51.51
2022-09-30T13:22:32.221Z,51.04
2022-09-30T13:24:58.667Z,49.09
2022-09-30T13:27:40.983Z,49.22
2022-09-30T13:30:32.195Z,48.89
2022-09-30T13:33:02.533Z,48.27
2022-09-30T13:35:42.120Z,48.60
2022-09-30T13:38:11.590Z,46.04
2022-09-30T13:41:03.271Z,45.86
2022-09-30T13:44:05.993Z,45.68
2022-09-30T13:46:35.608Z,46.09
2022-09-30T13:49:21.531Z,46.63
2022-09-30T13:51:48.887Z,46.35
2022-09-30T13:54:27.921Z,46.63
2022-09-30T13:56:55.555Z,46.22
2022-09-30T14:00:07.350Z,47.21
2022-09-30T14:02:45.439Z,46.54
2022-09-30T14:05:40.408Z,46.13
2022-09-30T14:08:34.864Z,45.87
2022-09-30T14:11:22.968Z,46.31
2022-09-30T14:14:21.169Z,46.13
2022-09-30T14:17:06.107Z,47.09
2022-09-30T14:19:58.324Z,47.24
2022-09-30T14:22:29.967Z,47.11
2022-09-30T14:24:57.670Z,46.51
2022-09-30T14:27:42.972Z,47.37
2022-09-30T14:30:16.852Z,46.66
2022-09-30T14:32:46.958Z,45.89
2022-09-30T14:35:20.821Z,45.21
2022-09-30T14:38:01.883Z,45.10
2022-09-30T14:40:31.287Z,46.62
2022-09-30T14:43:02.772Z,47.78
2022-09-30T14:45:33.658Z,46.16
2022-09-30T14:48:07.522Z,47.06
2022-09-30T14:50:47.317Z,46.53
2022-09-30T14:53:31.053Z,46.96
2022-09-30T14:55:58.219Z,47.07
2022-09-30T14:58:28.660Z,47.70
2022-09-30T15:01:05.755Z,47.12
2022-09-30T15:03:39.946Z,47.03
2022-09-30T15:06:18.541Z,47.42
2022-09-30T15:08:45.828Z,47.13
2022-09-30T15:11:25.965Z,47.51
2022-09-30T15:14:00.024Z,48.04
2022-09-30T15:16:30.209Z,46.00
2022-09-30T15:18:57.689Z,47.20
2022-09-30T15:21:28.012Z,47.25
2022-09-30T15:24:00.679Z,47.41
2022-09-30T15:26:28.941Z,46.90
2022-09-30T15:28:55.831Z,48.00
2022-09-30T15:31:27.138Z,47.24
2022-09-30T15:34:24.009Z,46.85
2022-09-30T15:37:09.305Z,47.79
2022-09-30T15:39:58.895Z,48.09
2022-09-30T15:42:45.412Z,48.69
2022-09-30T15:45:35.526Z,48.43
2022-09-30T15:48:27.200Z,49.02
2022-09-30T15:51:03.532Z,49.29
2022-09-30T15:53:38.461Z,48.81
2022-09-30T15:56:25.916Z,49.91
2022-09-30T15:59:05.900Z,49.90
2022-09-30T16:01:38.986Z,50.93
2022-09-30T16:04:14.366Z,50.17
2022-09-30T16:06:41.256Z,51.18
2022-09-30T16:09:18.608Z,51.55
2022-09-30T16:11:53.848Z,52.29
2022-09-30T16:14:31.134Z,52.47
2022-09-30T16:17:01.192Z,53.24
2022-09-30T16:19:30.121Z,53.18
2022-09-30T16:21:57.845Z,53.72
2022-09-30T16:24:24.247Z,53.77
2022-09-30T16:26:55.633Z,54.46
2022-09-30T16:29:23.232Z,54.81
2022-09-30T16:31:51.851Z,54.98
2022-09-30T16:34:21.429Z,55.72
2022-09-30T16:36:48.165Z,56.10
2022-09-30T16:39:17.522Z,56.24
2022-09-30T16:41:44.699Z,56.79
2022-09-30T16:44:11.596Z,56.77
2022-09-30T16:46:39.362Z,57.33
2022-09-30T16:49:16.701Z,57.62
2022-09-30T16:51:44.133Z,58.32
2022-09-30T16:54:12.439Z,58.39
2022-09-30T16:56:40.331Z,58.50
2022-09-30T16:59:17.691Z,58.55
2022-09-30T17:01:44.509Z,59.22
2022-09-30T17:04:15.210Z,59.36
2022-09-30T17:06:46.931Z,60.01
2022-09-30T17:09:13.500Z,60.17
2022-09-30T17:11:43.668Z,60.25
2022-09-30T17:14:10.634Z,60.55
2022-09-30T17:16:38.623Z,61.22
2022-09-30T17:19:05.269Z,61.62
2022-09-30T17:21:31.739Z,61.97
2022-09-30T17:23:59.048Z,62.58
2022-09-30T17:26:25.732Z,63.15
2022-09-30T17:28:53.517Z,63.06
2022-09-30T17:31:21.918Z,63.43
2022-09-30T17:33:48.515Z,63.76
2022-09-30T17:36:15.764Z,64.39
2022-09-30T17:38:42.457Z,64.16
2022-09-30T17:41:31.621Z,64.93
2022-09-30T17:44:02.629Z,64.95
2022-09-30T17:46:40.676Z,65.03
2022-09-30T17:49:07.541Z,65.73
2022-09-30T17:51:34.779Z,66.16
2022-09-30T17:54:03.087Z,66.02
2022-09-30T17:56:29.649Z,66.76
2022-09-30T17:58:56.117Z,66.57
2022-09-30T18:01:22.740Z,66.92
2022-09-30T18:03:52.933Z,67.10
2022-09-30T18:06:20.432Z,67.44
2022-09-30T18:08:50.920Z,67.89
2022-09-30T18:11:26.081Z,68.50
2022-09-30T18:13:57.963Z,68.48
2022-09-30T18:16:33.500Z,69.02
2022-09-30T18:19:03.613Z,69.13
2022-09-30T18:21:31.254Z,69.30
2022-09-30T18:23:58.232Z,69.99
2022-09-30T18:26:26.240Z,70.08
2022-09-30T18:28:52.999Z,70.01
2022-09-30T18:31:34.585Z,70.92
2022-09-30T18:34:04.884Z,71.11
2022-09-30T18:36:35.217Z,71.25
2022-09-30T18:39:03.709Z,71.81
2022-09-30T18:41:33.786Z,71.59
2022-09-30T18:44:03.157Z,72.24
2022-09-30T18:46:32.549Z,72.66
2022-09-30T18:48:59.074Z,72.79
2022-09-30T18:51:25.632Z,73.01
2022-09-30T18:53:55.965Z,73.06
2022-09-30T18:56:23.546Z,73.82
2022-09-30T18:58:51.555Z,73.62
2022-09-30T19:01:18.897Z,73.78
2022-09-30T19:03:45.582Z,73.95
2022-09-30T19:06:12.574Z,74.14
2022-09-30T19:08:39.324Z,74.61
2022-09-30T19:11:14.052Z,74.65
2022-09-30T19:13:43.071Z,74.79
2022-09-30T19:16:11.666Z,74.72
2022-09-30T19:18:41.018Z,75.55
2022-09-30T19:21:11.664Z,75.67
2022-09-30T19:23:40.473Z,75.58
2022-09-30T19:26:08.085Z,75.67
2022-09-30T19:28:38.074Z,76.01
2022-09-30T19:31:13.044Z,76.75
2022-09-30T19:33:51.716Z,77.09
2022-09-30T19:36:23.526Z,76.66
2022-09-30T19:38:51.108Z,77.07
2022-09-30T19:41:19.191Z,77.19
2022-09-30T19:43:50.128Z,77.51
2022-09-30T19:46:17.187Z,77.46
2022-09-30T19:48:44.203Z,77.65
2022-09-30T19:51:13.090Z,78.22
2022-09-30T19:53:44.898Z,78.02
2022-09-30T19:56:19.034Z,78.55
2022-09-30T19:58:51.152Z,78.48
2022-09-30T20:01:25.306Z,78.77
2022-09-30T20:03:53.628Z,78.71
2022-09-30T20:06:22.791Z,78.56
2022-09-30T20:08:52.022Z,79.04
2022-09-30T20:11:21.945Z,78.98
2022-09-30T20:14:15.279Z,79.17
2022-09-30T20:16:43.634Z,78.97
2022-09-30T20:19:11.551Z,79.53
2022-09-30T20:21:39.196Z,79.36
2022-09-30T20:24:05.829Z,79.37
2022-09-30T20:26:34.135Z,79.48
2022-09-30T20:29:00.851Z,80.02
2022-09-30T20:31:28.285Z,79.91
2022-09-30T20:33:59.410Z,80.28
2022-09-30T20:36:28.208Z,79.97
2022-09-30T20:38:59.062Z,80.65
2022-09-30T20:41:26.606Z,80.49
2022-09-30T20:43:53.756Z,80.20
2022-09-30T20:46:22.099Z,80.49
2022-09-30T20:48:49.609Z,80.43
2022-09-30T20:51:18.188Z,80.58
2022-09-30T20:53:49.528Z,80.08
2022-09-30T20:56:16.279Z,79.98
2022-09-30T20:58:43.129Z,79.95
2022-09-30T21:01:14.117Z,79.99
2022-09-30T21:03:41.726Z,79.94
2022-09-30T21:06:11.739Z,79.78
2022-09-30T21:08:42.683Z,79.71
2022-09-30T21:11:10.749Z,80.00
2022-09-30T21:13:41.701Z,79.91
2022-09-30T21:16:12.151Z,79.66
2022-09-30T21:18:46.476Z,79.68
2022-09-30T21:21:15.305Z,79.84
2022-09-30T21:23:42.719Z,79.64
2022-09-30T21:26:12.799Z,79.43
2022-09-30T21:28:41.981Z,79.54
2022-09-30T21:31:26.726Z,79.13
2022-09-30T21:34:02.042Z,78.55
2022-09-30T21:36:28.910Z,78.67
2022-09-30T21:39:02.646Z,78.39
2022-09-30T21:41:29.908Z,78.35
2022-09-30T21:43:56.472Z,78.06
2022-09-30T21:46:23.284Z,77.54
2022-09-30T21:48:49.962Z,77.09
2022-09-30T21:51:17.032Z,76.13
2022-09-30T21:53:43.561Z,74.98
2022-09-30T21:56:12.208Z,74.65
2022-09-30T21:58:39.380Z,73.62
2022-09-30T22:01:06.872Z,72.49
2022-09-30T22:03:38.336Z,72.72
2022-09-30T22:06:09.965Z,72.81
2022-09-30T22:08:40.883Z,71.88
2022-09-30T22:11:22.489Z,72.04
2022-09-30T22:13:48.943Z,71.25
2022-09-30T22:16:40.857Z,71.55
2022-09-30T22:19:09.890Z,71.70
2022-09-30T22:21:38.643Z,72.02
2022-09-30T22:24:07.954Z,71.21
2022-09-30T22:26:34.980Z,70.90
2022-09-30T22:29:06.973Z,71.40
2022-09-30T22:31:34.395Z,71.02
2022-09-30T22:34:22.466Z,71.24
2022-09-30T22:37:07.862Z,70.53
2022-09-30T22:39:34.958Z,70.86
2022-09-30T22:42:04.173Z,71.50
2022-09-30T22:44:35.566Z,70.99
2022-09-30T22:47:03.295Z,71.12
2022-09-30T22:49:32.066Z,70.79
2022-09-30T22:51:59.219Z,71.23
2022-09-30T22:54:26.657Z,72.09
2022-09-30T22:56:54.814Z,72.43
2022-09-30T22:59:23.222Z,72.03
2022-09-30T23:01:50.117Z,72.07
2022-09-30T23:04:17.718Z,71.83
2022-09-30T23:06:49.136Z,71.53
2022-09-30T23:09:20.707Z,71.26
2022-09-30T23:11:48.436Z,71.62
2022-09-30T23:14:14.910Z,71.87
2022-09-30T23:16:41.855Z,72.05
2022-09-30T23:19:08.468Z,71.92
2022-09-30T23:21:35.639Z,71.99
2022-09-30T23:24:02.666Z,72.09
2022-09-30T23:26:29.964Z,72.64
2022-09-30T23:29:03.586Z,71.71
2022-09-30T23:31:30.176Z,71.42
2022-09-30T23:34:01.904Z,71.65
2022-09-30T23:36:31.945Z,71.51
2022-09-30T23:39:09.294Z,71.53
2022-09-30T23:41:36.401Z,71.50
2022-09-30T23:44:04.399Z,70.72
2022-09-30T23:46:31.392Z,70.86
2022-09-30T23:48:58.100Z,71.01
2022-09-30T23:51:24.566Z,70.54
2022-09-30T23:53:51.332Z,70.94
2022-09-30T23:56:18.874Z,70.38
2022-09-30T23:58:46.682Z,70.75
